createdAt,value
2022-09-15T00:02:11.762Z,16.44
2022-09-15T00:04:38.513Z,16.51
2022-09-15T00:07:05.333Z,16.47
2022-09-15T00:09:31.842Z,16.47
2022-09-15T00:11:58.361Z,16.51
2022-09-15T00:14:24.837Z,16.55
2022-09-15T00:16:51.334Z,16.49
2022-09-15T00:19:17.834Z,16.42
2022-09-15T00:21:44.296Z,16.36
2022-09-15T00:24:11.015Z,16.36
2022-09-15T00:26:38.334Z,16.31
2022-09-15T00:29:05.159Z,16.32
2022-09-15T00:31:33.209Z,16.38
2022-09-15T00:34:04.948Z,16.41
2022-09-15T00:36:31.964Z,16.47
2022-09-15T00:38:58.842Z,16.42
2022-09-15T00:41:26.015Z,16.40
2022-09-15T00:43:54.388Z,16.37
2022-09-15T00:46:42.138Z,16.41
2022-09-15T00:49:30.964Z,16.38
2022-09-15T00:52:07.239Z,16.33
2022-09-15T00:54:51.487Z,16.32
2022-09-15T00:57:25.328Z,16.31
2022-09-15T00:59:53.235Z,16.33
2022-09-15T01:02:23.844Z,16.32
2022-09-15T01:04:58.111Z,16.32
2022-09-15T01:07:32.212Z,16.22
2022-09-15T01:10:08.433Z,16.25
2022-09-15T01:12:35.625Z,16.23
2022-09-15T01:15:02.161Z,16.28
2022-09-15T01:17:34.479Z,16.35
2022-09-15T01:20:19.756Z,16.35
2022-09-15T01:23:24.133Z,16.42
2022-09-15T01:26:25.785Z,16.43
2022-09-15T01:29:23.239Z,16.46
2022-09-15T01:32:43.892Z,16.53
2022-09-15T01:35:13.041Z,16.54
2022-09-15T01:37:47.380Z,16.55
2022-09-15T01:40:17.327Z,16.52
2022-09-15T01:42:45.143Z,16.53
2022-09-15T01:45:21.852Z,16.46
2022-09-15T01:47:52.352Z,16.46
2022-09-15T01:50:44.053Z,16.41
2022-09-15T01:53:16.918Z,16.38
2022-09-15T01:55:51.522Z,16.37
2022-09-15T01:58:17.997Z,16.36
2022-09-15T02:00:49.591Z,16.38
2022-09-15T02:03:18.514Z,16.37
2022-09-15T02:05:52.717Z,16.38
2022-09-15T02:08:29.090Z,16.37
2022-09-15T02:11:13.800Z,16.32
2022-09-15T02:14:10.562Z,16.35
2022-09-15T02:16:39.413Z,16.29
2022-09-15T02:19:16.963Z,16.32
2022-09-15T02:22:17.586Z,16.22
2022-09-15T02:25:16.548Z,16.13
2022-09-15T02:27:47.311Z,16.11
2022-09-15T02:30:16.706Z,16.06
2022-09-15T02:32:56.094Z,16.03
2022-09-15T02:35:25.935Z,16.02
2022-09-15T02:37:53.213Z,16.01
2022-09-15T02:40:20.083Z,16.05
2022-09-15T02:42:58.570Z,16.08
2022-09-15T02:45:25.613Z,16.04
2022-09-15T02:47:52.216Z,16.05
2022-09-15T02:50:19.100Z,16.01
2022-09-15T02:52:45.819Z,16.07
2022-09-15T02:55:12.689Z,16.07
2022-09-15T02:57:39.161Z,16.13
2022-09-15T03:00:13.211Z,16.14
2022-09-15T03:02:45.442Z,16.09
2022-09-15T03:05:14.288Z,16.12
2022-09-15T03:07:41.188Z,16.15
2022-09-15T03:10:10.829Z,16.06
2022-09-15T03:12:45.820Z,15.96
2022-09-15T03:15:14.165Z,15.98
2022-09-15T03:17:42.465Z,16.03
2022-09-15T03:20:10.984Z,15.89
2022-09-15T03:22:38.370Z,15.94
2022-09-15T03:25:05.611Z,16.01
2022-09-15T03:27:33.344Z,15.94
2022-09-15T03:30:00.061Z,15.93
2022-09-15T03:32:26.518Z,15.96
2022-09-15T03:34:57.685Z,15.97
2022-09-15T03:37:25.069Z,16.07
2022-09-15T03:39:51.567Z,15.91
2022-09-15T03:42:18.081Z,15.90
2022-09-15T03:44:44.550Z,15.88
2022-09-15T03:47:11.167Z,15.95
2022-09-15T03:49:37.628Z,15.88
2022-09-15T03:52:04.224Z,15.81
2022-09-15T03:54:31.092Z,15.78
2022-09-15T03:56:57.830Z,15.85
2022-09-15T03:59:24.342Z,15.89
2022-09-15T04:01:50.945Z,15.74
2022-09-15T04:04:17.570Z,15.76
2022-09-15T04:06:44.879Z,15.73
2022-09-15T04:09:11.450Z,15.72
2022-09-15T04:11:39.391Z,15.75
2022-09-15T04:14:05.901Z,15.71
2022-09-15T04:16:32.579Z,15.74
2022-09-15T04:18:59.313Z,15.81
2022-09-15T04:21:26.726Z,15.84
2022-09-15T04:23:54.144Z,15.80
2022-09-15T04:26:25.280Z,15.69
2022-09-15T04:28:51.762Z,15.70
2022-09-15T04:31:18.672Z,15.65
2022-09-15T04:33:45.473Z,15.69
2022-09-15T04:36:19.322Z,15.53
2022-09-15T04:38:46.006Z,15.59
2022-09-15T04:41:13.295Z,15.57
2022-09-15T04:43:39.935Z,15.39
2022-09-15T04:46:06.940Z,15.47
2022-09-15T04:48:33.773Z,15.58
2022-09-15T04:51:06.094Z,15.71
2022-09-15T04:53:32.708Z,15.63
2022-09-15T04:56:04.673Z,15.59
2022-09-15T04:58:31.784Z,15.64
2022-09-15T05:00:58.321Z,15.62
2022-09-15T05:03:25.200Z,15.73
2022-09-15T05:05:51.679Z,15.72
2022-09-15T05:08:18.141Z,15.77
2022-09-15T05:10:44.580Z,15.69
2022-09-15T05:13:11.036Z,15.71
2022-09-15T05:15:37.505Z,15.68
2022-09-15T05:18:04.113Z,15.72
2022-09-15T05:20:30.569Z,15.74
2022-09-15T05:22:57.030Z,15.83
2022-09-15T05:25:23.582Z,15.76
2022-09-15T05:27:50.068Z,15.82
2022-09-15T05:30:36.290Z,15.84
2022-09-15T05:33:04.834Z,15.92
2022-09-15T05:35:31.297Z,15.90
2022-09-15T05:37:57.755Z,15.96
2022-09-15T05:40:24.293Z,15.82
2022-09-15T05:42:50.752Z,15.88
2022-09-15T05:45:17.384Z,15.89
2022-09-15T05:47:43.830Z,15.89
2022-09-15T05:50:11.225Z,16.00
2022-09-15T05:52:38.130Z,15.98
2022-09-15T05:55:04.991Z,16.03
2022-09-15T05:57:32.165Z,16.01
2022-09-15T05:59:58.621Z,15.93
2022-09-15T06:02:25.150Z,16.00
2022-09-15T06:04:51.776Z,16.06
2022-09-15T06:07:18.254Z,16.15
2022-09-15T06:09:45.221Z,16.10
2022-09-15T06:12:11.718Z,16.03
2022-09-15T06:14:38.199Z,15.89
2022-09-15T06:17:04.734Z,15.96
2022-09-15T06:19:31.183Z,16.03
2022-09-15T06:21:57.634Z,15.96
2022-09-15T06:24:24.351Z,15.94
2022-09-15T06:26:50.906Z,16.07
2022-09-15T06:29:17.424Z,16.04
2022-09-15T06:31:43.977Z,16.00
2022-09-15T06:34:11.745Z,16.01
2022-09-15T06:36:39.086Z,16.07
2022-09-15T06:39:05.744Z,16.00
2022-09-15T06:41:58.455Z,16.00
2022-09-15T06:44:19.068Z,16.15
2022-09-15T06:46:45.696Z,16.11
2022-09-15T06:49:12.294Z,16.19
2022-09-15T06:51:38.872Z,16.17
2022-09-15T06:54:06.200Z,16.18
2022-09-15T06:56:37.216Z,16.20
2022-09-15T06:59:04.691Z,16.23
2022-09-15T07:01:32.523Z,16.05
2022-09-15T07:04:01.482Z,16.08
2022-09-15T07:06:29.569Z,16.06
2022-09-15T07:08:57.100Z,16.14
2022-09-15T07:11:23.927Z,16.12
2022-09-15T07:13:51.050Z,16.29
2022-09-15T07:16:19.365Z,16.24
2022-09-15T07:18:47.061Z,16.35
2022-09-15T07:21:21.507Z,16.43
2022-09-15T07:23:48.920Z,16.35
2022-09-15T07:26:16.792Z,16.40
2022-09-15T07:28:45.780Z,16.22
2022-09-15T07:31:15.687Z,16.22
2022-09-15T07:33:42.438Z,16.21
2022-09-15T07:36:09.472Z,16.20
2022-09-15T07:38:39.462Z,16.15
2022-09-15T07:41:08.129Z,16.31
2022-09-15T07:43:34.596Z,16.36
2022-09-15T07:46:02.208Z,16.34
2022-09-15T07:48:29.431Z,16.30
2022-09-15T07:50:56.211Z,16.36
2022-09-15T07:53:23.053Z,16.40
2022-09-15T07:55:53.387Z,16.43
2022-09-15T07:58:20.313Z,16.50
2022-09-15T08:00:50.196Z,16.30
2022-09-15T08:03:16.939Z,16.25
2022-09-15T08:05:45.647Z,16.21
2022-09-15T08:08:12.590Z,16.06
2022-09-15T08:10:41.226Z,16.11
2022-09-15T08:13:08.168Z,16.21
2022-09-15T08:15:37.915Z,16.18
2022-09-15T08:18:05.986Z,16.12
2022-09-15T08:20:32.883Z,16.21
2022-09-15T08:22:59.554Z,16.34
2022-09-15T08:25:26.016Z,16.28
2022-09-15T08:27:54.191Z,16.34
2022-09-15T08:30:21.283Z,16.35
2022-09-15T08:32:48.136Z,16.43
2022-09-15T08:35:16.665Z,16.57
2022-09-15T08:37:43.203Z,16.51
2022-09-15T08:40:36.010Z,16.52
2022-09-15T08:43:12.826Z,16.55
2022-09-15T08:45:52.659Z,16.69
2022-09-15T08:48:24.779Z,16.73
2022-09-15T08:50:54.758Z,16.76
2022-09-15T08:53:30.533Z,16.80
2022-09-15T08:56:00.244Z,16.87
2022-09-15T08:58:34.397Z,16.99
2022-09-15T09:01:19.432Z,16.84
2022-09-15T09:04:03.989Z,16.82
2022-09-15T09:07:05.958Z,16.93
2022-09-15T09:10:11.656Z,16.83
2022-09-15T09:13:00.574Z,16.76
2022-09-15T09:15:39.575Z,16.82
2022-09-15T09:18:34.811Z,16.93
2022-09-15T09:21:07.347Z,17.15
2022-09-15T09:23:41.698Z,17.17
2022-09-15T09:26:12.045Z,17.08
2022-09-15T09:28:51.250Z,17.15
2022-09-15T09:31:21.769Z,17.14
2022-09-15T09:34:15.997Z,17.14
2022-09-15T09:36:42.824Z,17.38
2022-09-15T09:39:15.189Z,17.39
2022-09-15T09:41:42.426Z,17.30
2022-09-15T09:44:15.108Z,17.40
2022-09-15T09:46:42.326Z,17.30
2022-09-15T09:49:25.226Z,17.34
2022-09-15T09:51:55.149Z,17.38
2022-09-15T09:54:25.127Z,17.60
2022-09-15T09:56:53.659Z,17.60
2022-09-15T09:59:46.166Z,17.52
2022-09-15T10:02:15.842Z,17.61
2022-09-15T10:04:45.422Z,17.79
2022-09-15T10:07:13.950Z,17.61
2022-09-15T10:09:58.197Z,17.50
2022-09-15T10:12:30.826Z,17.32
2022-09-15T10:15:01.195Z,17.06
2022-09-15T10:17:45.656Z,16.84
2022-09-15T10:20:32.637Z,16.80
2022-09-15T10:23:24.065Z,16.80
2022-09-15T10:25:59.416Z,16.72
2022-09-15T10:28:27.130Z,16.77
2022-09-15T10:31:08.347Z,16.74
2022-09-15T10:33:40.338Z,16.78
2022-09-15T10:36:13.080Z,16.87
2022-09-15T10:38:44.446Z,16.80
2022-09-15T10:41:27.487Z,16.81
2022-09-15T10:44:24.483Z,16.96
2022-09-15T10:47:16.173Z,17.03
2022-09-15T10:50:27.679Z,17.10
2022-09-15T10:53:16.778Z,17.08
2022-09-15T10:55:57.800Z,17.21
2022-09-15T10:58:39.933Z,17.31
2022-09-15T11:01:29.957Z,17.42
2022-09-15T11:04:23.624Z,17.45
2022-09-15T11:07:29.638Z,17.60
2022-09-15T11:10:03.235Z,17.87
2022-09-15T11:12:48.264Z,17.64
2022-09-15T11:15:28.030Z,17.48
2022-09-15T11:18:11.185Z,17.24
2022-09-15T11:21:15.639Z,17.09
2022-09-15T11:24:03.766Z,17.14
2022-09-15T11:26:45.610Z,17.13
2022-09-15T11:29:24.798Z,17.10
2022-09-15T11:32:06.584Z,17.20
2022-09-15T11:34:44.667Z,17.37
2022-09-15T11:37:14.689Z,17.36
2022-09-15T11:40:13.646Z,17.61
2022-09-15T11:42:49.124Z,17.57
2022-09-15T11:45:23.212Z,17.55
2022-09-15T11:47:58.782Z,17.59
2022-09-15T11:50:33.359Z,17.72
2022-09-15T11:53:19.405Z,17.76
2022-09-15T11:55:59.419Z,17.72
2022-09-15T11:58:40.961Z,17.70
2022-09-15T12:01:10.564Z,17.81
2022-09-15T12:03:55.654Z,17.54
2022-09-15T12:09:31.904Z,17.15
2022-09-15T12:12:04.399Z,16.96
2022-09-15T12:14:41.345Z,16.74
2022-09-15T12:17:32.455Z,16.70
2022-09-15T12:20:17.534Z,16.64
2022-09-15T12:22:54.857Z,16.46
2022-09-15T12:25:33.923Z,16.39
2022-09-15T12:28:26.853Z,16.28
2022-09-15T12:31:25.537Z,16.32
2022-09-15T12:33:59.646Z,16.19
2022-09-15T12:36:43.340Z,16.05
2022-09-15T12:39:30.441Z,16.03
2022-09-15T12:42:07.087Z,15.87
2022-09-15T12:44:56.061Z,15.89
2022-09-15T12:47:40.757Z,15.73
2022-09-15T12:50:16.393Z,15.65
2022-09-15T12:52:57.171Z,15.59
2022-09-15T12:55:36.576Z,15.58
2022-09-15T12:58:15.854Z,15.51
2022-09-15T13:01:06.836Z,15.34
2022-09-15T13:06:10.107Z,15.36
2022-09-15T13:08:36.517Z,15.41
2022-09-15T13:11:42.982Z,15.41
2022-09-15T13:14:18.790Z,15.55
2022-09-15T13:16:52.660Z,15.60
2022-09-15T13:19:42.358Z,15.62
2022-09-15T13:22:11.616Z,15.63
2022-09-15T13:24:57.793Z,15.64
2022-09-15T13:27:54.937Z,15.57
2022-09-15T13:30:21.470Z,15.51
2022-09-15T13:33:02.666Z,15.57
2022-09-15T13:35:52.132Z,15.43
2022-09-15T13:38:37.142Z,15.52
2022-09-15T13:41:22.321Z,15.60
2022-09-15T13:44:20.827Z,15.59
2022-09-15T13:47:19.949Z,15.66
2022-09-15T13:50:11.651Z,15.75
2022-09-15T13:52:59.213Z,15.82
2022-09-15T13:55:28.519Z,15.85
2022-09-15T14:00:56.357Z,15.93
2022-09-15T14:03:41.701Z,16.03
2022-09-15T14:06:30.365Z,15.95
2022-09-15T14:09:01.244Z,15.87
2022-09-15T14:11:32.586Z,15.71
2022-09-15T14:14:00.649Z,15.50
2022-09-15T14:16:27.821Z,15.33
2022-09-15T14:18:57.588Z,15.35
2022-09-15T14:21:27.059Z,15.25
2022-09-15T14:23:56.635Z,15.13
2022-09-15T14:26:32.569Z,15.06
2022-09-15T14:29:06.800Z,15.05
2022-09-15T14:31:39.309Z,14.95
2022-09-15T14:34:15.693Z,14.91
2022-09-15T14:36:42.504Z,14.91
2022-09-15T14:39:11.660Z,14.77
2022-09-15T14:41:42.082Z,14.74
2022-09-15T14:45:54.865Z,14.70
2022-09-15T14:47:22.408Z,14.71
2022-09-15T14:49:49.382Z,14.80
2022-09-15T14:52:34.076Z,14.73
2022-09-15T14:55:03.756Z,14.88
2022-09-15T14:57:34.394Z,15.04
2022-09-15T15:00:07.163Z,15.00
2022-09-15T15:02:50.653Z,14.82
2022-09-15T15:05:33.308Z,14.91
2022-09-15T15:08:04.008Z,14.90
2022-09-15T15:10:35.622Z,14.89
2022-09-15T15:13:16.733Z,14.78
2022-09-15T15:15:44.423Z,14.81
2022-09-15T15:18:36.077Z,14.84
2022-09-15T15:21:03.597Z,14.74
2022-09-15T15:23:31.964Z,14.80
2022-09-15T15:26:24.545Z,14.77
2022-09-15T15:28:51.316Z,14.77
2022-09-15T15:31:23.433Z,14.76
2022-09-15T15:34:05.366Z,14.72
2022-09-15T15:36:34.416Z,14.68
2022-09-15T15:39:04.443Z,14.65
2022-09-15T15:41:40.747Z,14.74
2022-09-15T15:44:26.385Z,14.75
2022-09-15T15:46:55.849Z,14.89
2022-09-15T15:49:29.161Z,14.95
2022-09-15T15:52:00.081Z,14.92
2022-09-15T15:54:27.247Z,15.02
2022-09-15T15:56:54.005Z,14.92
2022-09-15T15:59:20.983Z,14.97
2022-09-15T16:01:51.468Z,15.04
2022-09-15T16:04:18.377Z,15.04
2022-09-15T16:06:48.184Z,15.09
2022-09-15T16:09:17.429Z,15.09
2022-09-15T16:11:43.933Z,15.15
2022-09-15T16:14:14.250Z,15.22
2022-09-15T16:16:40.989Z,15.33
2022-09-15T16:19:08.446Z,15.24
2022-09-15T16:21:41.634Z,15.25
2022-09-15T16:24:15.866Z,15.25
2022-09-15T16:26:43.257Z,15.38
2022-09-15T16:29:10.054Z,16.36
2022-09-15T16:31:37.178Z,16.66
2022-09-15T16:34:04.039Z,17.15
2022-09-15T16:36:34.551Z,17.29
2022-09-15T16:39:01.075Z,16.73
2022-09-15T16:41:27.760Z,16.37
2022-09-15T16:43:55.879Z,16.34
2022-09-15T16:46:22.451Z,16.32
2022-09-15T16:48:49.037Z,16.33
2022-09-15T16:51:29.768Z,16.04
2022-09-15T16:53:57.366Z,15.95
2022-09-15T16:56:23.844Z,15.76
2022-09-15T16:58:54.777Z,15.64
2022-09-15T17:01:25.186Z,15.57
2022-09-15T17:03:51.719Z,15.46
2022-09-15T17:06:18.757Z,15.57
2022-09-15T17:08:45.507Z,15.65
2022-09-15T17:11:16.720Z,15.68
2022-09-15T17:13:44.823Z,15.60
2022-09-15T17:16:13.875Z,15.60
2022-09-15T17:18:40.788Z,15.58
2022-09-15T17:21:10.753Z,15.48
2022-09-15T17:23:39.048Z,15.38
2022-09-15T17:26:10.941Z,15.29
2022-09-15T17:28:37.776Z,15.29
2022-09-15T17:31:15.141Z,15.26
2022-09-15T17:33:42.280Z,15.22
2022-09-15T17:36:08.910Z,15.19
2022-09-15T17:38:35.380Z,15.10
2022-09-15T17:41:01.901Z,14.90
2022-09-15T17:43:30.714Z,14.67
2022-09-15T17:45:57.624Z,14.64
2022-09-15T17:48:24.759Z,14.75
2022-09-15T17:50:52.627Z,14.74
2022-09-15T17:53:26.614Z,14.70
2022-09-15T17:55:54.654Z,14.59
2022-09-15T17:58:22.054Z,14.57
2022-09-15T18:00:49.152Z,14.54
2022-09-15T18:03:30.793Z,14.53
2022-09-15T18:05:59.937Z,14.47
2022-09-15T18:08:27.354Z,14.41
2022-09-15T18:10:54.428Z,14.42
2022-09-15T18:13:23.596Z,14.46
2022-09-15T18:15:50.539Z,14.45
2022-09-15T18:18:20.336Z,14.38
2022-09-15T18:20:47.397Z,14.36
2022-09-15T18:23:16.783Z,14.34
2022-09-15T18:25:44.115Z,14.29
2022-09-15T18:28:10.789Z,14.27
2022-09-15T18:30:43.171Z,14.24
2022-09-15T18:33:15.479Z,14.17
2022-09-15T18:35:43.425Z,14.13
2022-09-15T18:38:10.764Z,14.10
2022-09-15T18:40:37.267Z,14.05
2022-09-15T18:43:04.199Z,14.01
2022-09-15T18:45:30.632Z,13.90
2022-09-15T18:47:57.121Z,13.84
2022-09-15T18:50:25.231Z,13.80
2022-09-15T18:52:51.734Z,13.72
2022-09-15T18:55:22.028Z,13.68
2022-09-15T18:57:48.980Z,13.67
2022-09-15T19:00:19.168Z,13.65
2022-09-15T19:02:46.164Z,13.61
2022-09-15T19:05:16.776Z,13.57
2022-09-15T19:07:44.665Z,13.41
2022-09-15T19:10:13.078Z,13.31
2022-09-15T19:12:39.965Z,13.33
2022-09-15T19:15:12.092Z,13.37
2022-09-15T19:17:39.641Z,13.40
2022-09-15T19:20:08.519Z,13.38
2022-09-15T19:22:35.870Z,13.32
2022-09-15T19:25:02.501Z,13.36
2022-09-15T19:27:29.177Z,13.28
2022-09-15T19:29:55.819Z,13.29
2022-09-15T19:32:22.320Z,13.24
2022-09-15T19:34:48.927Z,13.15
2022-09-15T19:37:19.016Z,13.09
2022-09-15T19:39:46.222Z,13.04
2022-09-15T19:44:41.746Z,13.03
2022-09-15T19:47:08.776Z,12.99
2022-09-15T19:49:36.647Z,12.98
2022-09-15T19:52:06.202Z,13.00
2022-09-15T19:54:34.328Z,12.97
2022-09-15T19:57:01.273Z,12.92
2022-09-15T19:59:31.392Z,12.91
2022-09-15T20:01:58.980Z,12.88
2022-09-15T20:04:25.486Z,12.85
2022-09-15T20:06:52.019Z,12.89
2022-09-15T20:09:18.808Z,12.88
2022-09-15T20:11:45.509Z,12.88
2022-09-15T20:14:12.044Z,12.82
2022-09-15T20:16:38.577Z,12.78
2022-09-15T20:19:06.124Z,12.73
2022-09-15T20:21:49.927Z,12.71
2022-09-15T20:24:18.615Z,12.66
2022-09-15T20:26:45.097Z,12.51
2022-09-15T20:29:11.991Z,12.43
2022-09-15T20:31:38.568Z,12.39
2022-09-15T20:34:05.255Z,12.40
2022-09-15T20:36:35.459Z,12.44
2022-09-15T20:39:04.910Z,12.44
2022-09-15T20:41:34.539Z,12.45
2022-09-15T20:44:01.149Z,12.45
2022-09-15T20:46:29.364Z,12.44
2022-09-15T20:48:55.848Z,12.38
2022-09-15T20:51:24.464Z,12.40
2022-09-15T20:53:53.990Z,12.33
2022-09-15T20:56:24.891Z,12.27
2022-09-15T20:58:55.953Z,12.27
2022-09-15T21:01:25.557Z,12.19
2022-09-15T21:03:52.169Z,12.17
2022-09-15T21:06:21.164Z,12.17
2022-09-15T21:08:48.823Z,12.07
2022-09-15T21:11:16.904Z,12.14
2022-09-15T21:13:44.201Z,12.17
2022-09-15T21:16:14.120Z,12.10
2022-09-15T21:18:42.066Z,11.96
2022-09-15T21:21:19.288Z,11.87
2022-09-15T21:23:48.420Z,11.87
2022-09-15T21:26:20.633Z,11.89
2022-09-15T21:28:48.709Z,11.91
2022-09-15T21:31:24.158Z,11.92
2022-09-15T21:33:52.928Z,11.90
2022-09-15T21:36:30.663Z,11.81
2022-09-15T21:38:58.815Z,11.74
2022-09-15T21:41:29.706Z,11.63
2022-09-15T21:43:58.471Z,11.57
2022-09-15T21:46:27.834Z,11.52
2022-09-15T21:48:56.198Z,11.50
2022-09-15T21:51:24.899Z,11.49
2022-09-15T21:53:56.459Z,11.50
2022-09-15T21:56:23.954Z,11.44
2022-09-15T21:58:50.430Z,11.37
2022-09-15T22:01:19.764Z,11.32
2022-09-15T22:03:51.716Z,11.30
2022-09-15T22:06:19.553Z,11.24
2022-09-15T22:08:46.750Z,11.18
2022-09-15T22:11:13.832Z,11.18
2022-09-15T22:13:42.882Z,11.09
2022-09-15T22:16:18.014Z,11.02
2022-09-15T22:18:45.406Z,11.01
2022-09-15T22:21:15.007Z,10.99
2022-09-15T22:23:43.035Z,10.99
2022-09-15T22:26:21.633Z,11.03
2022-09-15T22:28:48.700Z,11.05
2022-09-15T22:31:16.817Z,11.02
2022-09-15T22:33:44.186Z,10.96
2022-09-15T22:36:16.313Z,10.95
2022-09-15T22:38:43.386Z,10.95
2022-09-15T22:41:12.463Z,10.95
2022-09-15T22:43:40.468Z,10.92
2022-09-15T22:46:07.769Z,10.89
2022-09-15T22:48:37.491Z,10.82
2022-09-15T22:51:06.626Z,10.82
2022-09-15T22:53:33.460Z,10.83
2022-09-15T22:56:21.443Z,10.83
2022-09-15T22:58:49.381Z,10.76
2022-09-15T23:01:19.859Z,10.72
2022-09-15T23:03:57.855Z,10.72
2022-09-15T23:06:26.878Z,10.64
2022-09-15T23:08:55.725Z,10.61
2022-09-15T23:11:22.748Z,10.54
2022-09-15T23:13:49.307Z,10.51
2022-09-15T23:16:16.424Z,10.52
2022-09-15T23:18:43.090Z,10.52
2022-09-15T23:21:11.219Z,10.54
2022-09-15T23:23:40.033Z,10.53
2022-09-15T23:26:09.894Z,10.51
2022-09-15T23:28:37.111Z,10.46
2022-09-15T23:31:03.597Z,10.47
2022-09-15T23:33:31.601Z,10.47
2022-09-15T23:36:07.314Z,10.43
2022-09-15T23:38:39.173Z,10.41
2022-09-15T23:41:06.794Z,10.40
2022-09-15T23:43:33.724Z,10.41
2022-09-15T23:46:02.191Z,10.43
2022-09-15T23:48:29.433Z,10.43
2022-09-15T23:50:55.921Z,10.47
2022-09-15T23:53:22.458Z,10.47
2022-09-15T23:55:48.967Z,10.46
2022-09-15T23:58:15.645Z,10.43
